createdAt,value
2023-02-18T00:00:21.557Z,63.45
2023-02-18T00:01:21.632Z,63.42
2023-02-18T00:02:18.481Z,63.99
2023-02-18T00:03:15.387Z,64.39
2023-02-18T00:04:12.447Z,64.38
2023-02-18T00:05:09.312Z,65.05
2023-02-18T00:06:27.027Z,64.68
2023-02-18T00:07:23.873Z,63.94
2023-02-18T00:08:21.839Z,62.99
2023-02-18T00:09:18.587Z,63.28
2023-02-18T00:10:16.424Z,64.76
2023-02-18T00:11:14.108Z,64.89
2023-02-18T00:12:10.889Z,64.33
2023-02-18T00:13:08.029Z,64.79
2023-02-18T00:14:07.929Z,65.34
2023-02-18T00:15:05.822Z,66.29
2023-02-18T00:16:04.752Z,66.34
2023-02-18T00:17:01.588Z,66.11
2023-02-18T00:17:58.390Z,65.60
2023-02-18T00:18:57.162Z,64.13
2023-02-18T00:19:53.932Z,64.19
2023-02-18T00:20:50.701Z,64.61
2023-02-18T00:21:47.799Z,66.22
2023-02-18T00:22:44.615Z,64.81
2023-02-18T00:23:43.819Z,64.35
2023-02-18T00:24:40.814Z,64.73
2023-02-18T00:25:37.538Z,65.15
2023-02-18T00:26:35.705Z,65.99
2023-02-18T00:27:32.725Z,65.07
2023-02-18T00:28:29.657Z,64.71
2023-02-18T00:29:26.454Z,65.13
2023-02-18T00:30:23.346Z,66.20
2023-02-18T00:31:24.379Z,66.03
2023-02-18T00:32:21.292Z,66.78
2023-02-18T00:33:17.999Z,66.95
2023-02-18T00:34:14.859Z,66.42
2023-02-18T00:35:11.609Z,65.87
2023-02-18T00:36:12.212Z,67.45
2023-02-18T00:37:08.936Z,66.89
2023-02-18T00:38:05.745Z,66.90
2023-02-18T00:39:06.453Z,65.27
2023-02-18T00:40:04.139Z,65.17
2023-02-18T00:41:01.641Z,65.46
2023-02-18T00:41:58.476Z,65.23
2023-02-18T00:42:55.309Z,65.51
2023-02-18T00:43:52.843Z,66.23
2023-02-18T00:44:49.558Z,65.61
2023-02-18T00:45:46.330Z,65.48
2023-02-18T00:46:43.402Z,64.87
2023-02-18T00:47:40.296Z,64.41
2023-02-18T00:48:37.460Z,64.69
2023-02-18T00:49:34.250Z,63.52
2023-02-18T00:50:31.058Z,63.91
2023-02-18T00:51:28.244Z,64.64
2023-02-18T00:52:25.048Z,64.36
2023-02-18T00:53:22.707Z,64.31
2023-02-18T00:54:19.443Z,64.61
2023-02-18T00:55:16.331Z,64.48
2023-02-18T00:56:13.220Z,63.88
2023-02-18T00:57:09.963Z,64.29
2023-02-18T00:58:06.755Z,63.70
2023-02-18T00:59:03.594Z,63.60
2023-02-18T01:00:00.320Z,64.45
2023-02-18T01:00:57.228Z,64.30
2023-02-18T01:01:55.165Z,64.78
2023-02-18T01:02:55.329Z,64.79
2023-02-18T01:03:52.176Z,64.67
2023-02-18T01:04:49.016Z,65.03
2023-02-18T01:05:46.387Z,66.00
2023-02-18T01:06:43.172Z,66.20
2023-02-18T01:07:39.958Z,66.16
2023-02-18T01:08:37.900Z,65.63
2023-02-18T01:09:34.665Z,65.28
2023-02-18T01:10:31.645Z,65.08
2023-02-18T01:11:28.476Z,65.40
2023-02-18T01:12:25.262Z,66.16
2023-02-18T01:13:22.328Z,67.60
2023-02-18T01:14:19.239Z,66.98
2023-02-18T01:15:17.271Z,66.58
2023-02-18T01:16:14.209Z,67.40
2023-02-18T01:17:11.000Z,67.27
2023-02-18T01:18:09.265Z,66.61
2023-02-18T01:19:06.082Z,67.51
2023-02-18T01:20:03.479Z,66.76
2023-02-18T01:21:01.190Z,66.32
2023-02-18T01:21:58.152Z,66.58
2023-02-18T01:22:54.944Z,65.77
2023-02-18T01:23:51.804Z,65.60
2023-02-18T01:24:48.593Z,65.15
2023-02-18T01:25:45.370Z,65.43
2023-02-18T01:26:42.169Z,65.26
2023-02-18T01:27:42.017Z,64.84
2023-02-18T01:28:40.934Z,64.90
2023-02-18T01:29:37.711Z,64.15
2023-02-18T01:30:34.747Z,64.57
2023-02-18T01:31:31.633Z,64.95
2023-02-18T01:32:28.598Z,64.46
2023-02-18T01:33:25.417Z,63.89
2023-02-18T01:34:22.197Z,63.41
2023-02-18T01:35:20.767Z,63.55
2023-02-18T01:36:18.595Z,63.95
2023-02-18T01:37:15.418Z,63.59
2023-02-18T01:38:12.487Z,63.15
2023-02-18T01:39:09.301Z,63.77
2023-02-18T01:40:08.753Z,64.28
2023-02-18T01:41:06.498Z,63.81
2023-02-18T01:42:03.985Z,63.45
2023-02-18T01:43:01.716Z,64.09
2023-02-18T01:44:21.238Z,64.14
2023-02-18T01:45:39.073Z,64.17
2023-02-18T01:46:35.910Z,64.16
2023-02-18T01:47:32.788Z,64.62
2023-02-18T01:48:33.019Z,64.76
2023-02-18T01:49:37.684Z,64.66
2023-02-18T01:50:38.736Z,64.55
2023-02-18T01:51:45.193Z,64.11
2023-02-18T01:52:42.166Z,65.48
2023-02-18T01:53:50.900Z,64.92
2023-02-18T01:54:56.737Z,64.87
2023-02-18T01:55:53.549Z,65.22
2023-02-18T01:56:57.413Z,64.81
2023-02-18T01:57:55.055Z,64.91
2023-02-18T01:58:57.458Z,65.48
2023-02-18T02:00:03.807Z,64.91
2023-02-18T02:01:00.673Z,65.12
2023-02-18T02:01:58.927Z,65.08
2023-02-18T02:02:55.793Z,66.05
2023-02-18T02:03:52.811Z,66.73
2023-02-18T02:04:54.700Z,66.65
2023-02-18T02:05:51.584Z,66.67
2023-02-18T02:06:48.446Z,67.05
2023-02-18T02:07:47.499Z,67.06
2023-02-18T02:08:47.870Z,66.23
2023-02-18T02:09:45.979Z,67.93
2023-02-18T02:11:06.760Z,68.79
2023-02-18T02:12:41.671Z,68.55
2023-02-18T02:13:52.965Z,69.98
2023-02-18T02:15:23.633Z,70.37
2023-02-18T02:16:30.094Z,69.04
2023-02-18T02:17:54.218Z,68.39
2023-02-18T02:19:32.103Z,69.55
2023-02-18T02:20:43.516Z,71.02
2023-02-18T02:21:43.239Z,71.31
2023-02-18T02:23:02.022Z,72.15
2023-02-18T02:24:17.254Z,72.04
2023-02-18T02:25:13.966Z,71.46
2023-02-18T02:26:32.540Z,72.17
2023-02-18T02:27:43.622Z,72.21
2023-02-18T02:29:16.217Z,70.82
2023-02-18T02:30:15.970Z,69.47
2023-02-18T02:31:12.752Z,69.99
2023-02-18T02:32:32.964Z,71.18
2023-02-18T02:33:38.466Z,71.77
2023-02-18T02:34:47.550Z,72.25
2023-02-18T02:36:07.358Z,72.07
2023-02-18T02:37:14.729Z,70.67
2023-02-18T02:38:44.121Z,69.47
2023-02-18T02:40:02.472Z,70.64
2023-02-18T02:41:23.404Z,71.36
2023-02-18T02:42:37.290Z,71.44
2023-02-18T02:43:56.574Z,73.09
2023-02-18T02:44:53.300Z,73.96
2023-02-18T02:46:02.423Z,74.95
2023-02-18T02:47:09.751Z,74.75
2023-02-18T02:48:35.346Z,75.09
2023-02-18T02:50:20.463Z,74.95
2023-02-18T02:51:55.623Z,75.21
2023-02-18T02:52:59.128Z,73.68
2023-02-18T02:54:08.914Z,73.65
2023-02-18T02:55:09.699Z,71.60
2023-02-18T02:56:06.870Z,70.21
2023-02-18T02:57:07.565Z,69.40
2023-02-18T02:58:04.400Z,68.65
2023-02-18T02:59:05.916Z,68.34
2023-02-18T03:00:10.404Z,67.62
2023-02-18T03:01:19.163Z,66.66
2023-02-18T03:02:48.418Z,65.67
2023-02-18T03:03:50.773Z,64.14
2023-02-18T03:05:14.313Z,64.86
2023-02-18T03:06:41.723Z,64.13
2023-02-18T03:07:54.677Z,63.36
2023-02-18T03:09:18.801Z,62.32
2023-02-18T03:10:15.589Z,63.31
2023-02-18T03:11:15.894Z,62.58
2023-02-18T03:12:40.953Z,63.75
2023-02-18T03:14:10.478Z,63.01
2023-02-18T03:15:37.382Z,62.77
2023-02-18T03:16:46.321Z,63.21
2023-02-18T03:18:01.603Z,62.53
2023-02-18T03:19:07.917Z,62.70
2023-02-18T03:20:17.699Z,62.54
2023-02-18T03:21:51.727Z,62.13
2023-02-18T03:22:53.339Z,61.98
2023-02-18T03:23:57.547Z,61.81
2023-02-18T03:24:57.975Z,60.77
2023-02-18T03:25:59.552Z,61.01
2023-02-18T03:27:10.389Z,60.78
2023-02-18T03:28:17.686Z,59.96
2023-02-18T03:29:18.513Z,60.67
2023-02-18T03:30:24.661Z,60.80
2023-02-18T03:31:28.706Z,61.61
2023-02-18T03:32:29.461Z,62.21
2023-02-18T03:33:37.156Z,61.87
2023-02-18T03:34:41.554Z,63.43
2023-02-18T03:35:39.368Z,63.46
2023-02-18T03:36:37.597Z,63.40
2023-02-18T03:37:42.239Z,64.06
2023-02-18T03:39:00.828Z,63.91
2023-02-18T03:40:02.186Z,62.93
2023-02-18T03:40:59.424Z,62.86
2023-02-18T03:41:56.644Z,61.91
2023-02-18T03:42:53.567Z,62.04
2023-02-18T03:43:58.212Z,63.26
2023-02-18T03:44:55.700Z,63.23
2023-02-18T03:45:52.782Z,63.01
2023-02-18T03:46:49.652Z,63.50
2023-02-18T03:47:46.613Z,63.47
2023-02-18T03:48:43.752Z,63.47
2023-02-18T03:49:40.579Z,63.77
2023-02-18T03:50:37.421Z,64.83
2023-02-18T03:51:34.188Z,65.30
2023-02-18T03:52:31.604Z,65.43
2023-02-18T03:53:28.361Z,66.22
2023-02-18T03:54:25.210Z,65.96
2023-02-18T03:55:21.956Z,65.61
2023-02-18T03:56:20.220Z,65.15
2023-02-18T03:57:17.035Z,65.12
2023-02-18T03:58:13.870Z,63.78
2023-02-18T03:59:11.903Z,63.88
2023-02-18T04:00:10.594Z,62.93
2023-02-18T04:01:07.426Z,63.54
2023-02-18T04:02:04.148Z,62.35
2023-02-18T04:03:00.980Z,61.99
2023-02-18T04:03:57.830Z,61.77
2023-02-18T04:04:54.767Z,61.67
2023-02-18T04:05:51.537Z,60.46
2023-02-18T04:06:48.310Z,61.16
2023-02-18T04:07:45.123Z,60.74
2023-02-18T04:08:41.948Z,61.57
2023-02-18T04:09:38.702Z,60.78
2023-02-18T04:10:35.505Z,60.16
2023-02-18T04:11:32.350Z,60.58
2023-02-18T04:12:29.280Z,60.54
2023-02-18T04:13:26.107Z,59.60
2023-02-18T04:14:22.844Z,59.78
2023-02-18T04:15:19.727Z,59.66
2023-02-18T04:16:16.783Z,59.05
2023-02-18T04:17:13.650Z,59.90
2023-02-18T04:18:10.433Z,59.32
2023-02-18T04:19:07.488Z,59.55
2023-02-18T04:20:04.947Z,57.98
2023-02-18T04:21:01.760Z,58.96
2023-02-18T04:21:58.479Z,57.71
2023-02-18T04:22:55.480Z,58.52
2023-02-18T04:23:52.296Z,58.17
2023-02-18T04:24:49.016Z,57.89
2023-02-18T04:25:45.790Z,57.70
2023-02-18T04:26:42.591Z,57.04
2023-02-18T04:27:39.346Z,57.94
2023-02-18T04:28:36.323Z,58.34
2023-02-18T04:29:33.169Z,57.92
2023-02-18T04:30:30.080Z,58.32
2023-02-18T04:31:27.179Z,58.42
2023-02-18T04:32:24.088Z,57.79
2023-02-18T04:33:20.867Z,58.22
2023-02-18T04:34:17.596Z,58.78
2023-02-18T04:35:17.739Z,58.31
2023-02-18T04:36:14.586Z,57.17
2023-02-18T04:37:11.318Z,58.16
2023-02-18T04:38:09.794Z,56.97
2023-02-18T04:39:06.577Z,57.46
2023-02-18T04:40:04.149Z,57.00
2023-02-18T04:41:01.037Z,57.29
2023-02-18T04:41:57.838Z,56.59
2023-02-18T04:42:54.617Z,56.59
2023-02-18T04:43:51.498Z,57.28
2023-02-18T04:44:48.339Z,56.93
2023-02-18T04:45:45.118Z,56.80
2023-02-18T04:46:42.568Z,57.28
2023-02-18T04:47:39.419Z,56.66
2023-02-18T04:48:36.275Z,56.21
2023-02-18T04:49:33.906Z,57.01
2023-02-18T04:50:34.222Z,57.45
2023-02-18T04:51:30.980Z,56.47
2023-02-18T04:52:27.878Z,57.68
2023-02-18T04:53:24.719Z,57.24
2023-02-18T04:54:21.525Z,57.09
2023-02-18T04:55:18.540Z,56.69
2023-02-18T04:56:15.892Z,57.63
2023-02-18T04:57:13.181Z,56.11
2023-02-18T04:58:10.805Z,55.95
2023-02-18T04:59:07.687Z,56.09
2023-02-18T05:00:07.338Z,55.78
2023-02-18T05:01:07.338Z,57.51
2023-02-18T05:02:04.850Z,57.50
2023-02-18T05:03:01.644Z,58.35
2023-02-18T05:03:58.515Z,57.80
2023-02-18T05:04:55.344Z,58.84
2023-02-18T05:05:52.144Z,58.67
2023-02-18T05:06:49.183Z,59.01
2023-02-18T05:07:46.069Z,60.45
2023-02-18T05:08:42.844Z,60.38
2023-02-18T05:09:39.784Z,60.36
2023-02-18T05:10:38.680Z,60.81
2023-02-18T05:11:35.839Z,62.63
2023-02-18T05:12:32.689Z,62.60
2023-02-18T05:13:36.937Z,61.18
2023-02-18T05:14:34.122Z,61.33
2023-02-18T05:15:30.953Z,60.58
2023-02-18T05:16:27.827Z,61.63
2023-02-18T05:17:24.662Z,61.13
2023-02-18T05:18:21.385Z,61.62
2023-02-18T05:19:18.158Z,61.08
2023-02-18T05:20:15.047Z,61.37
2023-02-18T05:21:12.302Z,60.73
2023-02-18T05:22:09.197Z,62.49
2023-02-18T05:23:05.944Z,62.87
2023-02-18T05:24:20.817Z,64.70
2023-02-18T05:25:17.618Z,64.44
2023-02-18T05:26:14.582Z,64.23
2023-02-18T05:27:11.426Z,64.97
2023-02-18T05:28:08.153Z,66.05
2023-02-18T05:29:05.093Z,66.94
2023-02-18T05:30:05.131Z,65.85
2023-02-18T05:31:02.042Z,64.92
2023-02-18T05:31:58.938Z,63.78
2023-02-18T05:32:55.747Z,63.13
2023-02-18T05:33:52.463Z,65.05
2023-02-18T05:34:49.316Z,64.13
2023-02-18T05:35:46.085Z,64.62
2023-02-18T05:36:42.938Z,64.16
2023-02-18T05:37:39.768Z,64.17
2023-02-18T05:38:36.657Z,65.54
2023-02-18T05:39:33.510Z,65.49
2023-02-18T05:40:30.758Z,65.06
2023-02-18T05:41:46.201Z,65.33
2023-02-18T05:42:43.086Z,66.11
2023-02-18T05:44:00.616Z,66.69
2023-02-18T05:44:57.364Z,67.44
2023-02-18T05:45:54.181Z,67.34
2023-02-18T05:46:50.972Z,67.15
2023-02-18T05:47:47.732Z,66.63
2023-02-18T05:48:44.509Z,65.72
2023-02-18T05:49:42.857Z,65.76
2023-02-18T05:50:40.046Z,65.79
2023-02-18T05:51:36.840Z,64.97
2023-02-18T05:52:33.670Z,64.98
2023-02-18T05:53:33.435Z,65.61
2023-02-18T05:54:31.077Z,65.79
2023-02-18T05:55:27.911Z,64.76
2023-02-18T05:56:24.692Z,64.39
2023-02-18T05:57:21.549Z,64.50
2023-02-18T05:58:18.725Z,63.66
2023-02-18T05:59:16.059Z,62.86
2023-02-18T06:00:13.653Z,62.83
2023-02-18T06:01:10.456Z,62.70
2023-02-18T06:02:07.245Z,62.03
2023-02-18T06:03:04.201Z,63.24
2023-02-18T06:04:00.989Z,64.68
2023-02-18T06:04:57.729Z,64.86
2023-02-18T06:05:57.090Z,65.57
2023-02-18T06:06:54.848Z,64.58
2023-02-18T06:07:51.837Z,65.23
2023-02-18T06:08:48.632Z,65.29
2023-02-18T06:09:45.484Z,66.26
2023-02-18T06:10:42.361Z,66.71
2023-02-18T06:11:39.504Z,66.82
2023-02-18T06:12:39.133Z,67.26
2023-02-18T06:13:36.164Z,66.37
2023-02-18T06:14:33.054Z,66.60
2023-02-18T06:15:30.064Z,64.74
2023-02-18T06:16:30.413Z,64.46
2023-02-18T06:17:29.136Z,64.07
2023-02-18T06:18:25.875Z,64.43
2023-02-18T06:19:23.293Z,64.67
2023-02-18T06:20:20.080Z,67.20
2023-02-18T06:21:17.053Z,65.70
2023-02-18T06:22:13.797Z,64.73
2023-02-18T06:23:13.269Z,63.80
2023-02-18T06:24:10.062Z,63.01
2023-02-18T06:25:07.079Z,62.22
2023-02-18T06:26:04.030Z,62.61
2023-02-18T06:27:01.052Z,62.84
2023-02-18T06:27:57.862Z,63.30
2023-02-18T06:29:13.358Z,64.03
2023-02-18T06:30:10.689Z,64.53
2023-02-18T06:31:07.614Z,65.10
2023-02-18T06:32:04.849Z,65.88
2023-02-18T06:33:04.587Z,66.19
2023-02-18T06:34:01.396Z,66.31
2023-02-18T06:34:58.412Z,66.70
2023-02-18T06:36:07.979Z,66.24
2023-02-18T06:37:05.080Z,66.76
2023-02-18T06:38:02.140Z,66.33
2023-02-18T06:38:59.351Z,67.39
2023-02-18T06:39:56.243Z,66.14
2023-02-18T06:40:53.545Z,65.81
2023-02-18T06:41:56.412Z,66.18
2023-02-18T06:42:53.145Z,64.87
2023-02-18T06:43:50.033Z,64.70
2023-02-18T06:44:46.776Z,64.32
2023-02-18T06:45:43.519Z,63.92
2023-02-18T06:46:40.351Z,63.33
2023-02-18T06:47:37.162Z,62.94
2023-02-18T06:48:34.418Z,62.04
2023-02-18T06:49:31.250Z,61.87
2023-02-18T06:50:28.034Z,61.70
2023-02-18T06:51:25.126Z,61.69
2023-02-18T06:52:21.890Z,60.75
2023-02-18T06:53:20.869Z,59.91
2023-02-18T06:54:17.654Z,60.36
2023-02-18T06:55:14.485Z,60.94
2023-02-18T06:56:12.283Z,60.76
2023-02-18T06:57:09.139Z,60.31
2023-02-18T06:58:06.244Z,61.46
2023-02-18T06:59:03.009Z,62.12
2023-02-18T06:59:59.910Z,61.67
2023-02-18T07:00:56.678Z,61.86
2023-02-18T07:01:53.454Z,62.06
2023-02-18T07:02:50.394Z,61.34
2023-02-18T07:03:49.852Z,61.68
2023-02-18T07:04:46.984Z,62.50
2023-02-18T07:05:43.766Z,62.28
2023-02-18T07:06:40.564Z,61.73
2023-02-18T07:07:37.398Z,61.96
2023-02-18T07:08:36.279Z,60.84
2023-02-18T07:09:33.053Z,60.98
2023-02-18T07:10:29.929Z,60.46
2023-02-18T07:11:26.816Z,60.66
2023-02-18T07:12:23.748Z,59.50
2023-02-18T07:13:20.511Z,58.55
2023-02-18T07:14:17.322Z,59.40
2023-02-18T07:15:24.319Z,58.37
2023-02-18T07:16:21.281Z,57.87
2023-02-18T07:17:18.667Z,57.34
2023-02-18T07:18:15.486Z,57.17
2023-02-18T07:19:16.443Z,57.06
2023-02-18T07:20:13.500Z,57.03
2023-02-18T07:21:10.293Z,57.15
2023-02-18T07:22:07.186Z,57.74
2023-02-18T07:23:04.003Z,57.99
2023-02-18T07:24:00.869Z,57.81
2023-02-18T07:24:57.675Z,58.49
2023-02-18T07:26:06.320Z,58.38
2023-02-18T07:27:03.349Z,59.13
2023-02-18T07:28:00.200Z,58.97
2023-02-18T07:28:56.904Z,59.03
2023-02-18T07:29:53.842Z,59.08
2023-02-18T07:30:50.746Z,59.28
2023-02-18T07:31:47.719Z,58.16
2023-02-18T07:32:50.544Z,57.94
2023-02-18T07:33:47.353Z,57.34
2023-02-18T07:34:44.327Z,56.54
2023-02-18T07:35:41.116Z,56.48
2023-02-18T07:36:38.403Z,56.04
2023-02-18T07:37:35.217Z,56.42
2023-02-18T07:38:32.116Z,56.12
2023-02-18T07:39:28.955Z,56.08
2023-02-18T07:40:25.821Z,56.76
2023-02-18T07:41:26.164Z,56.84
2023-02-18T07:42:23.097Z,57.06
2023-02-18T07:43:19.967Z,56.94
2023-02-18T07:44:16.899Z,57.41
2023-02-18T07:45:14.293Z,57.78
2023-02-18T07:46:11.744Z,57.57
2023-02-18T07:47:12.660Z,57.54
2023-02-18T07:48:09.491Z,57.68
2023-02-18T07:49:06.302Z,57.86
2023-02-18T07:50:04.037Z,57.89
2023-02-18T07:51:00.862Z,57.18
2023-02-18T07:51:57.701Z,57.27
2023-02-18T07:52:54.597Z,56.98
2023-02-18T07:53:51.464Z,56.91
2023-02-18T07:54:48.238Z,56.85
2023-02-18T07:55:50.970Z,56.82
2023-02-18T07:56:48.555Z,56.42
2023-02-18T07:57:57.526Z,56.61
2023-02-18T07:58:54.239Z,56.00
2023-02-18T07:59:51.180Z,56.55
2023-02-18T08:00:49.526Z,56.39
2023-02-18T08:01:46.409Z,55.98
2023-02-18T08:02:43.182Z,55.70
2023-02-18T08:03:39.963Z,55.17
2023-02-18T08:04:36.715Z,55.39
2023-02-18T08:05:33.485Z,55.39
2023-02-18T08:06:50.617Z,55.25
2023-02-18T08:07:47.486Z,54.88
2023-02-18T08:08:45.362Z,54.80
2023-02-18T08:09:42.732Z,54.32
2023-02-18T08:10:39.540Z,53.70
2023-02-18T08:11:36.364Z,53.62
2023-02-18T08:12:33.136Z,53.64
2023-02-18T08:13:30.896Z,52.50
2023-02-18T08:14:27.773Z,52.76
2023-02-18T08:15:24.542Z,52.28
2023-02-18T08:16:22.501Z,51.54
2023-02-18T08:17:19.393Z,52.20
2023-02-18T08:18:22.321Z,51.54
2023-02-18T08:19:19.089Z,51.84
2023-02-18T08:20:16.040Z,51.83
2023-02-18T08:21:13.424Z,52.72
2023-02-18T08:22:10.512Z,52.35
2023-02-18T08:23:07.288Z,51.73
2023-02-18T08:24:04.410Z,50.99
2023-02-18T08:25:01.265Z,51.12
2023-02-18T08:25:58.063Z,51.68
2023-02-18T08:27:00.697Z,51.85
2023-02-18T08:27:57.855Z,52.00
2023-02-18T08:28:55.979Z,51.83
2023-02-18T08:29:53.067Z,52.03
2023-02-18T08:30:52.466Z,52.24
2023-02-18T08:31:49.374Z,52.08
2023-02-18T08:32:46.241Z,51.02
2023-02-18T08:33:43.040Z,51.18
2023-02-18T08:34:40.007Z,52.02
2023-02-18T08:35:36.812Z,51.42
2023-02-18T08:36:33.595Z,51.51
2023-02-18T08:37:31.159Z,51.25
2023-02-18T08:38:47.928Z,52.03
2023-02-18T08:39:44.703Z,51.53
2023-02-18T08:40:42.662Z,52.08
2023-02-18T08:41:39.457Z,51.94
2023-02-18T08:42:36.333Z,51.36
2023-02-18T08:43:33.528Z,51.86
2023-02-18T08:44:30.818Z,51.37
2023-02-18T08:45:27.926Z,51.08
2023-02-18T08:46:35.227Z,51.33
2023-02-18T08:48:17.902Z,50.67
2023-02-18T08:48:49.861Z,51.20
2023-02-18T08:49:55.197Z,51.33
2023-02-18T08:50:52.105Z,50.86
2023-02-18T08:51:49.205Z,51.10
2023-02-18T08:52:46.003Z,50.46
2023-02-18T08:53:45.202Z,50.56
2023-02-18T08:54:42.029Z,50.07
2023-02-18T08:55:41.176Z,50.03
2023-02-18T08:56:38.652Z,50.45
2023-02-18T08:57:35.450Z,49.67
2023-02-18T08:58:32.233Z,49.47
2023-02-18T08:59:28.964Z,49.92
2023-02-18T09:00:26.411Z,50.02
2023-02-18T09:01:23.417Z,49.22
2023-02-18T09:02:20.176Z,49.15
2023-02-18T09:03:17.043Z,49.25
2023-02-18T09:04:15.254Z,49.87
2023-02-18T09:05:12.946Z,49.82
2023-02-18T09:06:10.153Z,49.82
2023-02-18T09:07:06.928Z,49.89
2023-02-18T09:08:05.184Z,49.02
2023-02-18T09:09:02.353Z,49.15
2023-02-18T09:10:02.083Z,48.82
2023-02-18T09:11:02.032Z,48.79
2023-02-18T09:11:58.959Z,48.79
2023-02-18T09:12:55.681Z,47.81
2023-02-18T09:13:52.538Z,47.48
2023-02-18T09:14:49.384Z,48.08
2023-02-18T09:15:46.288Z,47.68
2023-02-18T09:16:43.379Z,47.53
2023-02-18T09:17:40.159Z,48.04
2023-02-18T09:18:37.112Z,47.41
2023-02-18T09:19:33.955Z,46.86
2023-02-18T09:20:30.773Z,46.64
2023-02-18T09:21:28.042Z,46.47
2023-02-18T09:22:24.938Z,45.74
2023-02-18T09:23:21.751Z,45.73
2023-02-18T09:24:19.028Z,45.43
2023-02-18T09:25:15.999Z,45.40
2023-02-18T09:26:21.322Z,44.75
2023-02-18T09:27:18.199Z,44.62
2023-02-18T09:28:14.930Z,43.71
2023-02-18T09:29:11.764Z,42.72
2023-02-18T09:30:08.891Z,42.52
2023-02-18T09:31:12.722Z,42.63
2023-02-18T09:32:11.119Z,42.44
2023-02-18T09:33:07.971Z,42.53
2023-02-18T09:34:05.635Z,42.41
2023-02-18T09:35:04.283Z,41.73
2023-02-18T09:36:01.746Z,42.26
2023-02-18T09:36:58.647Z,42.13
2023-02-18T09:37:55.376Z,42.33
2023-02-18T09:38:52.362Z,42.66
2023-02-18T09:39:49.127Z,42.52
2023-02-18T09:40:52.162Z,41.51
2023-02-18T09:41:53.506Z,41.11
2023-02-18T09:42:50.330Z,40.95
2023-02-18T09:43:53.953Z,40.84
2023-02-18T09:45:00.631Z,40.33
2023-02-18T09:46:00.926Z,40.57
2023-02-18T09:47:10.848Z,40.83
2023-02-18T09:48:10.256Z,40.44
2023-02-18T09:49:25.413Z,40.60
2023-02-18T09:50:24.523Z,39.88
2023-02-18T09:51:21.452Z,40.44
2023-02-18T09:52:20.929Z,38.44
2023-02-18T09:53:18.014Z,38.38
2023-02-18T09:54:18.385Z,38.87
2023-02-18T09:55:20.347Z,38.44
2023-02-18T09:56:28.553Z,37.76
2023-02-18T09:57:45.131Z,37.81
2023-02-18T09:58:44.513Z,37.01
2023-02-18T09:59:44.353Z,36.53
2023-02-18T10:00:44.843Z,36.33
2023-02-18T10:01:44.515Z,36.19
2023-02-18T10:02:53.346Z,36.01
2023-02-18T10:03:50.230Z,35.08
2023-02-18T10:04:52.234Z,35.28
2023-02-18T10:06:10.810Z,35.18
2023-02-18T10:07:23.788Z,34.60
2023-02-18T10:08:27.884Z,34.48
2023-02-18T10:09:26.925Z,34.54
2023-02-18T10:10:39.810Z,34.71
2023-02-18T10:11:42.302Z,33.81
2023-02-18T10:12:40.903Z,34.35
2023-02-18T10:13:38.666Z,34.25
2023-02-18T10:14:36.094Z,34.11
2023-02-18T10:15:34.268Z,34.30
2023-02-18T10:16:31.382Z,34.01
2023-02-18T10:17:33.595Z,34.94
2023-02-18T10:18:35.616Z,33.89
2023-02-18T10:19:41.046Z,34.23
2023-02-18T10:20:38.187Z,33.98
2023-02-18T10:21:36.301Z,33.49
2023-02-18T10:22:33.660Z,33.16
2023-02-18T10:23:34.554Z,33.92
2023-02-18T10:24:36.659Z,33.46
2023-02-18T10:25:42.738Z,33.44
2023-02-18T10:26:40.489Z,33.71
2023-02-18T10:27:41.019Z,33.09
2023-02-18T10:28:40.895Z,33.78
2023-02-18T10:29:37.656Z,33.24
2023-02-18T10:30:39.090Z,33.58
2023-02-18T10:31:44.599Z,33.66
2023-02-18T10:32:44.924Z,33.73
2023-02-18T10:34:00.753Z,33.97
2023-02-18T10:35:15.954Z,33.75
2023-02-18T10:36:25.883Z,33.28
2023-02-18T10:37:40.857Z,33.02
2023-02-18T10:39:02.440Z,33.17
2023-02-18T10:40:21.756Z,33.22
2023-02-18T10:41:50.506Z,32.79
2023-02-18T10:42:59.076Z,33.14
2023-02-18T10:44:04.866Z,32.97
2023-02-18T10:45:19.148Z,33.48
2023-02-18T10:46:28.986Z,33.72
2023-02-18T10:47:38.575Z,34.11
2023-02-18T10:49:04.736Z,33.75
2023-02-18T10:50:22.449Z,33.13
2023-02-18T10:51:23.136Z,33.35
2023-02-18T10:52:22.326Z,32.96
2023-02-18T10:53:39.173Z,33.06
2023-02-18T10:54:59.113Z,32.95
2023-02-18T10:55:56.870Z,32.69
2023-02-18T10:57:00.149Z,33.60
2023-02-18T10:57:57.851Z,32.62
2023-02-18T10:59:09.028Z,33.70
2023-02-18T11:00:24.172Z,33.39
2023-02-18T11:01:28.302Z,34.14
2023-02-18T11:02:30.907Z,33.51
2023-02-18T11:03:46.111Z,33.87
2023-02-18T11:04:45.984Z,34.16
2023-02-18T11:05:44.129Z,34.37
2023-02-18T11:06:53.161Z,34.68
2023-02-18T11:08:00.653Z,34.29
2023-02-18T11:08:59.123Z,34.44
2023-02-18T11:09:59.945Z,34.83
2023-02-18T11:10:58.348Z,34.33
2023-02-18T11:12:35.532Z,34.40
2023-02-18T11:13:35.371Z,34.72
2023-02-18T11:14:47.031Z,34.50
2023-02-18T11:16:05.510Z,34.59
2023-02-18T11:17:22.327Z,34.59
2023-02-18T11:18:30.996Z,35.03
2023-02-18T11:19:37.930Z,35.51
2023-02-18T11:20:39.383Z,35.30
2023-02-18T11:21:41.787Z,35.81
2023-02-18T11:22:41.153Z,35.76
2023-02-18T11:24:06.684Z,35.18
2023-02-18T11:25:20.650Z,35.65
2023-02-18T11:26:37.486Z,35.13
2023-02-18T11:28:02.873Z,35.30
2023-02-18T11:29:13.130Z,35.11
2023-02-18T11:30:23.582Z,35.43
2023-02-18T11:31:55.077Z,35.57
2023-02-18T11:33:03.582Z,35.45
2023-02-18T11:34:11.145Z,35.69
2023-02-18T11:35:20.096Z,34.68
2023-02-18T11:36:31.818Z,34.83
2023-02-18T11:37:31.161Z,35.16
2023-02-18T11:39:13.030Z,34.87
2023-02-18T11:40:26.513Z,35.33
2023-02-18T11:41:37.039Z,34.92
2023-02-18T11:42:36.104Z,34.13
2023-02-18T11:43:54.014Z,34.21
2023-02-18T11:44:56.444Z,34.32
2023-02-18T11:46:29.788Z,34.68
2023-02-18T11:47:40.034Z,34.61
2023-02-18T11:48:36.929Z,34.81
2023-02-18T11:49:35.907Z,34.38
2023-02-18T11:50:34.676Z,34.30
2023-02-18T11:51:38.872Z,34.65
2023-02-18T11:52:41.039Z,34.89
2023-02-18T11:53:38.151Z,34.87
2023-02-18T11:54:38.423Z,35.30
2023-02-18T11:55:35.247Z,34.42
2023-02-18T11:56:34.965Z,34.40
2023-02-18T11:57:40.904Z,34.70
2023-02-18T11:58:50.185Z,34.93
2023-02-18T11:59:46.961Z,34.69
2023-02-18T12:00:46.827Z,34.18
2023-02-18T12:01:51.770Z,34.40
2023-02-18T12:02:52.855Z,34.82
2023-02-18T12:04:16.275Z,34.63
2023-02-18T12:05:27.845Z,34.83
2023-02-18T12:06:59.516Z,35.06
2023-02-18T12:08:28.018Z,34.40
2023-02-18T12:09:44.982Z,34.57
2023-02-18T12:10:50.406Z,34.46
2023-02-18T12:12:00.273Z,34.50
2023-02-18T12:13:32.508Z,35.10
2023-02-18T12:14:35.909Z,34.53
2023-02-18T12:16:02.221Z,35.06
2023-02-18T12:19:17.233Z,35.09
2023-02-18T12:20:56.152Z,34.84
2023-02-18T12:22:08.740Z,35.17
2023-02-18T12:23:36.184Z,35.03
2023-02-18T12:25:16.106Z,34.36
2023-02-18T12:26:37.227Z,34.81
2023-02-18T12:27:51.203Z,34.41
2023-02-18T12:29:15.357Z,34.81
2023-02-18T12:30:51.940Z,34.95
2023-02-18T12:32:12.689Z,34.85
2023-02-18T12:33:44.276Z,34.63
2023-02-18T12:34:58.573Z,35.13
2023-02-18T12:36:23.951Z,34.35
2023-02-18T12:37:59.304Z,34.64
2023-02-18T12:39:40.476Z,34.27
2023-02-18T12:40:51.991Z,34.68
2023-02-18T12:42:21.671Z,35.33
2023-02-18T12:43:33.584Z,34.65
2023-02-18T12:44:54.921Z,35.23
2023-02-18T12:46:20.028Z,34.92
2023-02-18T12:47:31.729Z,35.01
2023-02-18T12:48:46.800Z,35.12
2023-02-18T12:50:00.029Z,34.63
2023-02-18T12:51:11.364Z,35.20
2023-02-18T12:52:36.469Z,35.64
2023-02-18T12:53:42.038Z,35.43
2023-02-18T12:54:50.859Z,35.17
2023-02-18T12:56:21.381Z,35.09
2023-02-18T12:57:23.711Z,34.71
2023-02-18T12:59:14.428Z,34.81
2023-02-18T13:00:49.849Z,34.70
2023-02-18T13:02:11.131Z,34.90
2023-02-18T13:03:52.245Z,34.89
2023-02-18T13:05:18.260Z,34.54
2023-02-18T13:06:53.130Z,35.48
2023-02-18T13:08:28.878Z,35.95
2023-02-18T13:09:48.387Z,36.66
2023-02-18T13:11:06.545Z,37.03
2023-02-18T13:12:24.121Z,36.74
2023-02-18T13:13:26.247Z,37.22
2023-02-18T13:15:00.383Z,36.91
2023-02-18T13:16:04.826Z,36.85
2023-02-18T13:17:05.689Z,37.29
2023-02-18T13:18:25.131Z,37.05
2023-02-18T13:19:41.407Z,37.36
2023-02-18T13:20:50.758Z,37.79
2023-02-18T13:22:13.544Z,37.16
2023-02-18T13:23:22.395Z,37.38
2023-02-18T13:24:37.808Z,37.05
2023-02-18T13:25:48.404Z,37.21
2023-02-18T13:26:53.851Z,37.62
2023-02-18T13:28:27.785Z,37.43